createdAt,value
2022-10-17T00:02:26.007Z,63.91
2022-10-17T00:04:52.941Z,64.03
2022-10-17T00:07:19.904Z,64.14
2022-10-17T00:09:46.822Z,64.20
2022-10-17T00:12:13.711Z,64.31
2022-10-17T00:14:40.653Z,64.62
2022-10-17T00:17:07.685Z,64.26
2022-10-17T00:19:34.622Z,64.74
2022-10-17T00:22:01.472Z,64.92
2022-10-17T00:24:31.054Z,64.82
2022-10-17T00:26:57.913Z,64.79
2022-10-17T00:29:25.737Z,64.53
2022-10-17T00:31:56.760Z,64.91
2022-10-17T00:34:25.468Z,64.55
2022-10-17T00:36:52.463Z,64.73
2022-10-17T00:39:19.395Z,65.00
2022-10-17T00:41:46.410Z,64.92
2022-10-17T00:44:31.725Z,64.54
2022-10-17T00:47:01.621Z,64.92
2022-10-17T00:49:32.970Z,64.39
2022-10-17T00:52:04.607Z,64.60
2022-10-17T00:54:35.651Z,64.35
2022-10-17T00:57:02.800Z,64.66
2022-10-17T00:59:32.645Z,64.71
2022-10-17T01:02:04.859Z,64.43
2022-10-17T01:04:32.137Z,64.75
2022-10-17T01:06:58.937Z,64.82
2022-10-17T01:09:27.363Z,64.78
2022-10-17T01:12:22.143Z,65.12
2022-10-17T01:15:04.309Z,65.33
2022-10-17T01:17:43.284Z,65.40
2022-10-17T01:20:36.005Z,65.42
2022-10-17T01:23:30.516Z,65.64
2022-10-17T01:26:23.987Z,66.15
2022-10-17T01:29:28.521Z,66.30
2022-10-17T01:32:02.229Z,66.46
2022-10-17T01:34:33.531Z,66.15
2022-10-17T01:37:18.760Z,66.68
2022-10-17T01:39:52.585Z,66.23
2022-10-17T01:42:34.148Z,66.54
2022-10-17T01:45:18.603Z,66.65
2022-10-17T01:47:47.879Z,66.86
2022-10-17T01:50:20.249Z,66.86
2022-10-17T01:53:03.763Z,66.83
2022-10-17T01:55:44.059Z,66.88
2022-10-17T01:58:16.900Z,66.62
2022-10-17T02:00:45.637Z,66.49
2022-10-17T02:03:17.844Z,67.11
2022-10-17T02:05:45.534Z,66.97
2022-10-17T02:08:12.955Z,67.08
2022-10-17T02:10:55.652Z,67.20
2022-10-17T02:13:48.820Z,67.61
2022-10-17T02:16:28.013Z,67.27
2022-10-17T02:19:02.396Z,67.79
2022-10-17T02:21:52.179Z,67.63
2022-10-17T02:24:32.356Z,67.54
2022-10-17T02:27:10.998Z,67.03
2022-10-17T02:29:47.909Z,67.25
2022-10-17T02:32:26.239Z,67.54
2022-10-17T02:34:56.486Z,67.84
2022-10-17T02:37:28.083Z,67.42
2022-10-17T02:39:58.003Z,67.79
2022-10-17T02:42:26.626Z,67.81
2022-10-17T02:44:55.203Z,67.50
2022-10-17T02:47:42.201Z,67.62
2022-10-17T02:50:09.544Z,67.40
2022-10-17T02:52:46.058Z,67.69
2022-10-17T02:55:20.066Z,67.74
2022-10-17T02:57:56.205Z,67.84
2022-10-17T03:00:25.112Z,67.46
2022-10-17T03:02:54.034Z,67.64
2022-10-17T03:05:24.215Z,67.42
2022-10-17T03:07:52.344Z,67.39
2022-10-17T03:10:19.789Z,67.29
2022-10-17T03:12:47.631Z,67.30
2022-10-17T03:15:14.904Z,67.20
2022-10-17T03:17:42.551Z,67.22
2022-10-17T03:20:10.715Z,67.51
2022-10-17T03:22:37.653Z,67.73
2022-10-17T03:25:06.146Z,67.69
2022-10-17T03:27:35.637Z,67.89
2022-10-17T03:30:02.627Z,67.82
2022-10-17T03:32:33.757Z,67.43
2022-10-17T03:35:00.768Z,67.69
2022-10-17T03:37:28.306Z,67.87
2022-10-17T03:39:55.745Z,67.83
2022-10-17T03:42:22.971Z,67.70
2022-10-17T03:44:49.855Z,68.06
2022-10-17T03:47:16.971Z,68.33
2022-10-17T03:49:44.594Z,68.30
2022-10-17T03:52:15.205Z,68.36
2022-10-17T03:54:42.526Z,68.31
2022-10-17T03:57:09.423Z,68.47
2022-10-17T03:59:36.772Z,68.20
2022-10-17T04:02:09.796Z,68.41
2022-10-17T04:04:36.775Z,68.25
2022-10-17T04:07:03.802Z,68.36
2022-10-17T04:09:30.834Z,68.11
2022-10-17T04:12:06.501Z,68.13
2022-10-17T04:14:36.593Z,68.42
2022-10-17T04:17:03.704Z,67.50
2022-10-17T04:19:31.561Z,68.10
2022-10-17T04:21:58.582Z,68.00
2022-10-17T04:24:27.973Z,68.77
2022-10-17T04:27:04.119Z,68.14
2022-10-17T04:29:33.391Z,68.41
2022-10-17T04:32:12.882Z,68.19
2022-10-17T04:34:50.132Z,67.76
2022-10-17T04:37:18.489Z,68.23
2022-10-17T04:39:46.716Z,67.93
2022-10-17T04:42:13.641Z,68.47
2022-10-17T04:44:41.072Z,67.84
2022-10-17T04:47:08.541Z,67.82
2022-10-17T04:49:35.600Z,67.69
2022-10-17T04:52:08.906Z,67.92
2022-10-17T04:54:39.594Z,67.61
2022-10-17T04:57:09.443Z,67.15
2022-10-17T04:59:36.802Z,66.99
2022-10-17T05:02:24.053Z,67.25
2022-10-17T05:04:51.600Z,66.79
2022-10-17T05:07:19.548Z,66.67
2022-10-17T05:10:00.958Z,66.67
2022-10-17T05:12:30.601Z,66.32
2022-10-17T05:14:57.912Z,66.46
2022-10-17T05:17:26.455Z,66.51
2022-10-17T05:19:53.431Z,66.23
2022-10-17T05:22:20.390Z,65.84
2022-10-17T05:24:47.578Z,66.12
2022-10-17T05:27:14.463Z,65.58
2022-10-17T05:29:41.464Z,65.40
2022-10-17T05:32:18.699Z,65.32
2022-10-17T05:34:45.560Z,65.46
2022-10-17T05:37:13.192Z,64.90
2022-10-17T05:39:42.942Z,64.69
2022-10-17T05:42:10.483Z,64.62
2022-10-17T05:44:39.333Z,64.12
2022-10-17T05:47:10.995Z,64.36
2022-10-17T05:49:46.308Z,64.04
2022-10-17T05:52:16.857Z,64.01
2022-10-17T05:54:57.454Z,63.44
2022-10-17T05:57:27.684Z,62.78
2022-10-17T05:59:54.963Z,62.88
2022-10-17T06:02:22.307Z,62.96
2022-10-17T06:04:50.510Z,63.29
2022-10-17T06:07:19.733Z,63.31
2022-10-17T06:09:47.829Z,62.63
2022-10-17T06:12:15.253Z,63.17
2022-10-17T06:14:43.273Z,63.07
2022-10-17T06:17:15.729Z,63.28
2022-10-17T06:19:45.126Z,63.13
2022-10-17T06:22:14.822Z,61.94
2022-10-17T06:24:42.593Z,63.07
2022-10-17T06:27:11.898Z,62.52
2022-10-17T06:29:40.455Z,62.13
2022-10-17T06:32:09.887Z,62.36
2022-10-17T06:34:40.542Z,61.71
2022-10-17T06:37:07.436Z,62.08
2022-10-17T06:39:36.549Z,61.82
2022-10-17T06:42:07.963Z,62.13
2022-10-17T06:44:47.388Z,61.86
2022-10-17T06:47:37.254Z,60.71
2022-10-17T06:50:15.206Z,59.51
2022-10-17T06:52:56.944Z,58.06
2022-10-17T06:55:52.532Z,57.11
2022-10-17T06:58:47.130Z,55.14
2022-10-17T07:01:43.084Z,55.45
2022-10-17T07:04:13.588Z,54.38
2022-10-17T07:06:41.020Z,55.74
2022-10-17T07:09:20.722Z,55.69
2022-10-17T07:11:47.856Z,56.29
2022-10-17T07:14:18.121Z,56.22
2022-10-17T07:16:46.565Z,56.54
2022-10-17T07:19:19.637Z,57.12
2022-10-17T07:21:46.663Z,57.40
2022-10-17T07:24:13.684Z,58.34
2022-10-17T07:26:44.985Z,57.52
2022-10-17T07:29:12.182Z,57.43
2022-10-17T07:31:56.246Z,58.01
2022-10-17T07:34:27.542Z,57.51
2022-10-17T07:36:54.618Z,58.26
2022-10-17T07:39:21.583Z,58.00
2022-10-17T07:41:50.893Z,58.12
2022-10-17T07:44:18.669Z,59.07
2022-10-17T07:46:49.384Z,58.84
2022-10-17T07:49:16.806Z,58.92
2022-10-17T07:51:43.829Z,59.70
2022-10-17T07:54:10.737Z,59.57
2022-10-17T07:56:37.739Z,60.16
2022-10-17T07:59:08.260Z,61.33
2022-10-17T08:01:37.058Z,62.91
2022-10-17T08:04:03.976Z,64.26
2022-10-17T08:06:30.839Z,68.21
2022-10-17T08:08:58.618Z,67.93
2022-10-17T08:11:25.530Z,70.21
2022-10-17T08:13:52.634Z,69.57
2022-10-17T08:16:19.664Z,70.18
2022-10-17T08:18:46.580Z,70.17
2022-10-17T08:21:13.644Z,70.66
2022-10-17T08:23:41.048Z,70.41
2022-10-17T08:26:10.792Z,70.14
2022-10-17T08:28:39.905Z,70.90
2022-10-17T08:31:13.032Z,70.37
2022-10-17T08:33:40.922Z,70.06
2022-10-17T08:36:09.435Z,69.53
2022-10-17T08:38:37.615Z,70.04
2022-10-17T08:41:12.262Z,68.56
2022-10-17T08:44:20.379Z,68.96
2022-10-17T08:46:48.453Z,70.53
2022-10-17T08:50:04.598Z,68.57
2022-10-17T08:52:53.125Z,69.51
2022-10-17T08:55:37.897Z,70.49
2022-10-17T08:58:22.259Z,70.74
2022-10-17T09:01:14.164Z,73.04
2022-10-17T09:04:20.066Z,74.45
2022-10-17T09:07:10.350Z,74.85
2022-10-17T09:09:58.871Z,76.03
2022-10-17T09:12:25.723Z,78.97
2022-10-17T09:15:16.479Z,80.79
2022-10-17T09:17:44.060Z,81.85
2022-10-17T09:20:21.652Z,84.19
2022-10-17T09:23:17.420Z,84.28
2022-10-17T09:25:47.578Z,84.95
2022-10-17T09:28:21.064Z,87.04
2022-10-17T09:30:56.299Z,88.54
2022-10-17T09:33:42.385Z,87.33
2022-10-17T09:36:21.512Z,86.52
2022-10-17T09:38:52.592Z,87.03
2022-10-17T09:41:47.502Z,87.40
2022-10-17T09:44:22.951Z,86.35
2022-10-17T09:47:20.532Z,86.07
2022-10-17T09:49:48.911Z,85.00
2022-10-17T09:52:15.757Z,85.70
2022-10-17T09:54:49.968Z,85.89
2022-10-17T09:57:19.066Z,84.97
2022-10-17T09:59:56.187Z,84.66
2022-10-17T10:02:24.725Z,85.70
2022-10-17T10:05:03.615Z,84.35
2022-10-17T10:07:34.825Z,84.97
2022-10-17T10:10:04.744Z,83.72
2022-10-17T10:12:39.539Z,84.15
2022-10-17T10:15:41.273Z,83.85
2022-10-17T10:18:33.056Z,83.93
2022-10-17T10:21:21.513Z,83.71
2022-10-17T10:24:12.666Z,84.97
2022-10-17T10:26:43.956Z,83.66
2022-10-17T10:29:36.862Z,83.50
2022-10-17T10:32:29.123Z,82.76
2022-10-17T10:35:08.833Z,83.36
2022-10-17T10:37:42.421Z,82.69
2022-10-17T10:40:35.254Z,82.56
2022-10-17T10:43:05.471Z,83.62
2022-10-17T10:45:54.097Z,82.39
2022-10-17T10:48:25.223Z,83.18
2022-10-17T10:51:09.778Z,82.68
2022-10-17T10:53:43.168Z,82.48
2022-10-17T10:56:21.231Z,82.96
2022-10-17T10:58:57.255Z,83.29
2022-10-17T11:01:39.206Z,82.99
2022-10-17T11:04:21.255Z,84.46
2022-10-17T11:06:52.445Z,82.99
2022-10-17T11:09:37.511Z,84.10
2022-10-17T11:12:13.359Z,83.33
2022-10-17T11:14:49.023Z,84.09
2022-10-17T11:17:32.670Z,84.31
2022-10-17T11:20:15.216Z,84.22
2022-10-17T11:22:48.161Z,83.99
2022-10-17T11:25:42.019Z,85.36
2022-10-17T11:28:18.389Z,85.12
2022-10-17T11:30:51.624Z,84.31
2022-10-17T11:33:29.174Z,85.91
2022-10-17T11:36:03.498Z,85.44
2022-10-17T11:38:39.561Z,84.90
2022-10-17T11:41:11.779Z,87.29
2022-10-17T11:43:48.757Z,86.49
2022-10-17T11:46:23.980Z,87.01
2022-10-17T11:49:19.055Z,86.59
2022-10-17T11:52:00.913Z,86.01
2022-10-17T11:54:40.959Z,87.69
2022-10-17T11:57:32.871Z,87.33
2022-10-17T12:00:11.929Z,88.25
2022-10-17T12:02:51.002Z,87.65
2022-10-17T12:05:36.475Z,88.17
2022-10-17T12:08:31.502Z,88.41
2022-10-17T12:11:01.243Z,87.79
2022-10-17T12:13:28.493Z,88.86
2022-10-17T12:15:57.100Z,87.74
2022-10-17T12:18:27.648Z,89.09
2022-10-17T12:21:00.268Z,88.40
2022-10-17T12:23:31.995Z,89.94
2022-10-17T12:26:05.408Z,89.39
2022-10-17T12:28:46.584Z,89.58
2022-10-17T12:31:16.561Z,88.36
2022-10-17T12:33:46.521Z,88.22
2022-10-17T12:36:22.162Z,88.07
2022-10-17T12:38:51.399Z,88.47
2022-10-17T12:41:38.553Z,88.56
2022-10-17T12:44:14.697Z,88.77
2022-10-17T12:46:57.243Z,88.20
2022-10-17T12:49:46.697Z,90.17
2022-10-17T12:52:31.757Z,89.13
2022-10-17T12:55:13.527Z,89.55
2022-10-17T12:57:53.506Z,89.12
2022-10-17T13:00:25.327Z,89.68
2022-10-17T13:02:54.907Z,90.04
2022-10-17T13:05:29.693Z,90.24
2022-10-17T13:08:00.046Z,88.68
2022-10-17T13:10:30.012Z,89.38
2022-10-17T13:13:33.767Z,88.30
2022-10-17T13:16:01.118Z,87.97
2022-10-17T13:18:29.736Z,88.85
2022-10-17T13:21:02.307Z,88.85
2022-10-17T13:23:40.620Z,87.60
2022-10-17T13:26:10.243Z,88.33
2022-10-17T13:28:39.569Z,88.60
2022-10-17T13:31:07.698Z,88.42
2022-10-17T13:33:40.970Z,88.65
2022-10-17T13:36:15.861Z,89.22
2022-10-17T13:38:43.368Z,88.72
2022-10-17T13:44:04.635Z,87.63
2022-10-17T13:46:38.411Z,88.07
2022-10-17T13:49:15.357Z,88.00
2022-10-17T13:51:48.066Z,88.28
2022-10-17T13:54:31.216Z,87.52
2022-10-17T13:56:59.566Z,88.11
2022-10-17T13:59:39.229Z,88.27
2022-10-17T14:02:12.706Z,88.91
2022-10-17T14:05:04.111Z,89.00
2022-10-17T14:08:09.413Z,89.67
2022-10-17T14:10:33.891Z,88.67
2022-10-17T14:13:01.902Z,88.55
2022-10-17T14:15:31.286Z,88.19
2022-10-17T14:18:09.495Z,89.12
2022-10-17T14:23:36.361Z,90.22
2022-10-17T14:26:09.301Z,90.31
2022-10-17T14:28:36.802Z,91.05
2022-10-17T14:31:33.968Z,90.84
2022-10-17T14:34:02.426Z,90.00
2022-10-17T14:36:38.730Z,90.39
2022-10-17T14:39:13.356Z,91.37
2022-10-17T14:41:44.839Z,90.95
2022-10-17T14:44:32.140Z,90.51
2022-10-17T14:47:30.786Z,91.04
2022-10-17T14:50:07.928Z,90.49
2022-10-17T14:52:35.410Z,91.18
2022-10-17T14:55:28.329Z,91.53
2022-10-17T14:57:56.038Z,91.90
2022-10-17T15:00:23.812Z,92.13
2022-10-17T15:02:52.685Z,91.79
2022-10-17T15:05:20.539Z,91.47
2022-10-17T15:07:47.528Z,92.53
2022-10-17T15:10:26.080Z,92.61
2022-10-17T15:12:59.073Z,92.41
2022-10-17T15:15:31.840Z,92.69
2022-10-17T15:17:58.864Z,93.40
2022-10-17T15:20:28.186Z,93.93
2022-10-17T15:22:56.108Z,92.48
2022-10-17T15:25:23.140Z,93.41
2022-10-17T15:27:50.169Z,94.00
2022-10-17T15:30:21.816Z,95.19
2022-10-17T15:32:49.771Z,93.38
2022-10-17T15:35:17.476Z,94.80
2022-10-17T15:37:46.778Z,94.06
2022-10-17T15:40:19.629Z,95.20
2022-10-17T15:42:46.645Z,93.99
2022-10-17T15:45:16.008Z,94.84
2022-10-17T15:47:49.516Z,93.97
2022-10-17T15:50:17.540Z,93.59
2022-10-17T15:52:44.418Z,93.14
2022-10-17T15:55:11.389Z,92.49
2022-10-17T15:57:42.969Z,92.78
2022-10-17T16:00:28.252Z,93.09
2022-10-17T16:02:55.148Z,92.68
2022-10-17T16:05:26.081Z,92.17
2022-10-17T16:07:53.893Z,91.83
2022-10-17T16:10:22.393Z,91.55
2022-10-17T16:12:50.401Z,91.69
2022-10-17T16:15:25.696Z,91.98
2022-10-17T16:17:53.933Z,91.48
2022-10-17T16:20:22.374Z,91.46
2022-10-17T16:22:49.711Z,91.29
2022-10-17T16:25:25.155Z,91.40
2022-10-17T16:27:54.194Z,91.42
2022-10-17T16:32:55.297Z,91.06
2022-10-17T16:35:25.663Z,90.63
2022-10-17T16:37:52.621Z,90.25
2022-10-17T16:40:19.773Z,90.89
2022-10-17T16:42:46.714Z,91.34
2022-10-17T16:45:22.226Z,90.94
2022-10-17T16:47:49.863Z,90.97
2022-10-17T16:50:17.117Z,90.28
2022-10-17T16:52:44.134Z,91.13
2022-10-17T16:55:11.105Z,91.34
2022-10-17T16:57:38.114Z,91.19
2022-10-17T17:00:07.138Z,90.88
2022-10-17T17:02:34.223Z,90.78
2022-10-17T17:05:01.345Z,90.56
2022-10-17T17:07:29.853Z,90.97
2022-10-17T17:09:57.144Z,89.91
2022-10-17T17:12:24.433Z,90.31
2022-10-17T17:14:51.742Z,90.38
2022-10-17T17:17:30.461Z,89.81
2022-10-17T17:20:06.905Z,90.30
2022-10-17T17:22:34.464Z,90.06
2022-10-17T17:25:01.660Z,90.01
2022-10-17T17:27:30.370Z,89.43
2022-10-17T17:29:57.553Z,89.74
2022-10-17T17:32:24.574Z,89.71
2022-10-17T17:34:51.637Z,89.86
2022-10-17T17:37:18.588Z,90.33
2022-10-17T17:39:45.580Z,90.11
2022-10-17T17:42:12.441Z,89.70
2022-10-17T17:44:39.341Z,89.72
2022-10-17T17:47:06.368Z,90.18
2022-10-17T17:49:33.216Z,90.68
2022-10-17T17:52:00.233Z,90.61
2022-10-17T17:54:27.146Z,90.47
2022-10-17T17:56:54.001Z,90.01
2022-10-17T17:59:20.961Z,90.71
2022-10-17T18:01:48.095Z,90.62
2022-10-17T18:04:16.586Z,90.68
2022-10-17T18:06:43.667Z,90.76
2022-10-17T18:09:11.196Z,90.75
2022-10-17T18:11:38.532Z,90.26
2022-10-17T18:14:08.022Z,90.50
2022-10-17T18:16:36.834Z,90.66
2022-10-17T18:19:06.891Z,90.79
2022-10-17T18:21:34.742Z,91.22
2022-10-17T18:24:02.315Z,90.93
2022-10-17T18:26:29.294Z,90.78
2022-10-17T18:28:56.717Z,90.93
2022-10-17T18:31:28.389Z,90.88
2022-10-17T18:33:57.101Z,91.27
2022-10-17T18:36:26.230Z,90.64
2022-10-17T18:38:54.653Z,90.31
2022-10-17T18:41:25.448Z,90.32
2022-10-17T18:43:54.500Z,90.12
2022-10-17T18:46:26.895Z,89.80
2022-10-17T18:48:54.107Z,90.25
2022-10-17T18:51:23.949Z,90.19
2022-10-17T18:53:53.288Z,90.25
2022-10-17T18:56:21.676Z,90.67
2022-10-17T18:58:49.124Z,90.84
2022-10-17T19:01:24.670Z,90.82
2022-10-17T19:03:54.205Z,91.37
2022-10-17T19:06:23.804Z,91.70
2022-10-17T19:08:50.907Z,91.53
2022-10-17T19:11:23.431Z,91.87
2022-10-17T19:13:51.564Z,92.43
2022-10-17T19:16:28.335Z,92.68
2022-10-17T19:18:58.866Z,92.73
2022-10-17T19:21:26.478Z,93.36
2022-10-17T19:23:56.762Z,94.05
2022-10-17T19:26:24.356Z,93.24
2022-10-17T19:28:53.536Z,93.58
2022-10-17T19:31:26.496Z,93.78
2022-10-17T19:33:55.097Z,95.05
2022-10-17T19:36:27.587Z,94.59
2022-10-17T19:38:58.303Z,93.77
2022-10-17T19:41:25.454Z,95.84
2022-10-17T19:43:52.637Z,95.41
2022-10-17T19:46:22.225Z,95.13
2022-10-17T19:48:50.397Z,94.83
2022-10-17T19:51:19.050Z,95.46
2022-10-17T19:53:47.147Z,95.30
2022-10-17T19:56:14.456Z,95.33
2022-10-17T19:58:45.514Z,96.00
2022-10-17T20:01:21.042Z,96.04
2022-10-17T20:03:48.114Z,97.25
2022-10-17T20:06:16.147Z,96.35
2022-10-17T20:08:43.465Z,97.27
2022-10-17T20:11:19.987Z,98.86
2022-10-17T20:13:47.659Z,98.03
2022-10-17T20:16:18.984Z,99.06
2022-10-17T20:18:46.218Z,99.68
2022-10-17T20:21:15.810Z,99.19
2022-10-17T20:23:43.618Z,99.18
2022-10-17T20:26:26.016Z,98.35
2022-10-17T20:29:04.958Z,97.79
2022-10-17T20:31:31.967Z,99.67
2022-10-17T20:33:59.964Z,98.85
2022-10-17T20:36:27.140Z,98.76
2022-10-17T20:38:55.924Z,98.65
2022-10-17T20:41:23.765Z,98.91
2022-10-17T20:43:52.197Z,98.29
2022-10-17T20:46:36.258Z,100.00
2022-10-17T20:49:06.283Z,99.73
2022-10-17T20:51:34.046Z,100.00
2022-10-17T20:54:00.919Z,99.76
2022-10-17T20:56:30.585Z,100.00
2022-10-17T20:59:06.090Z,100.00
2022-10-17T21:01:34.946Z,99.92
2022-10-17T21:04:21.264Z,99.91
2022-10-17T21:06:49.041Z,100.00
2022-10-17T21:09:15.972Z,100.00
2022-10-17T21:11:45.768Z,99.62
2022-10-17T21:14:12.877Z,99.38
2022-10-17T21:16:41.388Z,100.00
2022-10-17T21:19:10.218Z,99.87
2022-10-17T21:21:40.169Z,99.63
2022-10-17T21:24:13.070Z,98.99
2022-10-17T21:26:41.856Z,99.56
2022-10-17T21:29:10.365Z,98.75
2022-10-17T21:31:38.992Z,98.71
2022-10-17T21:34:08.638Z,99.17
2022-10-17T21:36:35.619Z,98.91
2022-10-17T21:39:03.041Z,99.78
2022-10-17T21:41:31.367Z,98.94
2022-10-17T21:44:02.017Z,98.99
2022-10-17T21:46:29.641Z,99.50
2022-10-17T21:48:58.547Z,99.39
2022-10-17T21:51:26.414Z,99.44
2022-10-17T21:53:54.927Z,99.33
2022-10-17T21:56:23.768Z,99.10
2022-10-17T21:58:51.875Z,98.58
2022-10-17T22:01:43.482Z,98.95
2022-10-17T22:04:18.087Z,98.48
2022-10-17T22:06:47.139Z,98.25
2022-10-17T22:09:25.522Z,97.98
2022-10-17T22:11:55.379Z,98.09
2022-10-17T22:14:24.554Z,98.04
2022-10-17T22:16:51.931Z,97.23
2022-10-17T22:19:22.216Z,97.35
2022-10-17T22:21:50.057Z,97.47
2022-10-17T22:24:19.312Z,97.23
2022-10-17T22:26:46.690Z,97.25
2022-10-17T22:29:14.231Z,97.15
2022-10-17T22:31:41.406Z,97.88
2022-10-17T22:34:08.808Z,97.45
2022-10-17T22:36:36.458Z,97.80
2022-10-17T22:39:04.321Z,97.54
2022-10-17T22:41:31.376Z,97.49
2022-10-17T22:43:58.318Z,97.34
2022-10-17T22:46:25.884Z,97.01
2022-10-17T22:48:52.773Z,95.97
2022-10-17T22:51:20.105Z,96.62
2022-10-17T22:53:47.048Z,96.06
2022-10-17T22:56:20.117Z,95.79
2022-10-17T22:58:47.722Z,96.10
2022-10-17T23:01:20.463Z,95.46
2022-10-17T23:03:47.545Z,95.38
2022-10-17T23:06:14.956Z,95.48
2022-10-17T23:08:42.763Z,94.54
2022-10-17T23:11:10.025Z,94.84
2022-10-17T23:13:37.298Z,94.75
2022-10-17T23:16:04.565Z,94.29
2022-10-17T23:21:03.979Z,94.31
2022-10-17T23:23:30.838Z,94.12
2022-10-17T23:26:04.894Z,93.97
2022-10-17T23:28:33.696Z,94.04
2022-10-17T23:31:11.197Z,93.79
2022-10-17T23:33:41.259Z,94.26
2022-10-17T23:36:10.711Z,94.31
2022-10-17T23:38:38.632Z,94.53
2022-10-17T23:41:05.950Z,94.69
2022-10-17T23:43:34.324Z,94.66
2022-10-17T23:46:02.374Z,94.83
2022-10-17T23:48:30.054Z,94.93
2022-10-17T23:50:57.335Z,94.67
2022-10-17T23:53:25.037Z,95.08
2022-10-17T23:55:52.417Z,95.37
2022-10-17T23:58:19.298Z,95.08
